Itapolis, Brazil
Current Conditions -  °F | °C
As of 12:00 AM on Saturday 29 Nov 2014 (Local Time) from SBBU Reporting Station
Clear Clear  
Wind Chill: 72°   Ceiling: Unl
Heat Index: 72°   Visibility: 6mi
Dew Point: 66°   Wind: 17mph
Humidity: 83%   Direction: 150°SSE
Pressure: 30.03"   Gusts: NA
Location:  21.58°S, 48.77°W
Report Text: SBBU 290200Z 15015KT CAVOK 22/19 Q1017
Loading
Personal Weather Stations






























Interactive Weather Map New forecast layout! Learn more

10-Day Weather Forecast

Advertisements
Track Severe Weather on mobile